Time;durP1;ratioP1;P1;durP2;ratioP2;P2;SDS_P1;SDS_P2;PMS_P1;PMS_P2;Temp;Humidity;BMP_temperature;BMP_pressure;BME280_temperature;BME280_humidity;BME280_pressure;Samples;Min_cycle;Max_cycle;Signal;HPM_P1;HPM_P2
2022/05/18 00:01:38;;;;;;;;;;;;;;;-144.99;100.00;52299.31;4993864;28;19974;-71
2022/05/18 00:04:05;;;;;;;;;;;;;;;-144.99;100.00;52321.72;4993679;28;19936;-73
2022/05/18 00:06:31;;;;;;;;;;;;;;;-144.99;100.00;52309.50;4994562;28;19988;-73
2022/05/18 00:08:59;;;;;;;;;;;;;;;-144.99;100.00;52336.00;4995508;28;19933;-73
2022/05/18 00:11:25;;;;;;;;;;;;;;;-144.99;100.00;52331.91;4995926;28;19925;-73
2022/05/18 00:13:53;;;;;;;;;;;;;;;-144.99;100.00;52305.41;4996296;28;19929;-74
2022/05/18 00:16:20;;;;;;;;;;;;;;;-144.99;100.00;52297.25;4997936;28;19925;-74
2022/05/18 00:18:46;;;;;;;;;;;;;;;-144.99;100.00;52285.03;4996128;28;19933;-74
2022/05/18 00:21:13;;;;;;;;;;;;;;;-144.99;100.00;52272.81;4992011;28;20136;-74
2022/05/18 00:23:40;;;;;;;;;;;;;;;-144.99;100.00;52331.91;4992243;28;19948;-75
2022/05/18 00:26:08;;;;;;;;;;;;;;;-144.99;100.00;52346.19;4991931;28;19926;-75
2022/05/18 00:28:34;;;;;;;;;;;;;;;-144.99;100.00;52325.81;4990857;28;20099;-74
2022/05/18 00:31:00;;;;;;;;;;;;;;;-144.99;100.00;52321.72;4992248;28;19933;-74
2022/05/18 00:33:27;;;;;;;;;;;;;;;-144.99;100.00;52336.00;4993734;28;19934;-74
2022/05/18 00:35:54;;;;;;;;;;;;;;;-144.99;100.00;52358.41;4993858;28;19929;-74
2022/05/18 00:38:20;;;;;;;;;;;;;;;-144.99;100.00;52350.25;4994390;28;19926;-74
2022/05/18 00:40:50;;;;;;;;;;;;;;;-144.99;100.00;52350.25;4992260;28;19926;-74
2022/05/18 00:43:19;;;;;;;;;;;;;;;-144.99;100.00;52325.81;4990538;28;20373;-74
2022/05/18 00:45:46;;;;;;;;;;;;;;;-144.99;100.00;52342.09;4986407;28;19925;-76
2022/05/18 00:48:12;;;;;;;;;;;;;;;-144.99;100.00;52325.81;4991366;28;19930;-74
2022/05/18 00:50:40;;;;;;;;;;;;;;;-144.99;96.54;52358.41;4991442;28;19936;-75
2022/05/18 00:53:08;;;;;;;;;;;;;;;-144.99;93.94;52368.59;4990890;28;19926;-73
2022/05/18 00:55:36;;;;;;;;;;;;;;;-144.99;91.98;52358.41;4991838;28;19934;-73
2022/05/18 00:58:05;;;;;;;;;;;;;;;-144.99;89.82;52354.34;4993389;28;19929;-75
2022/05/18 01:00:34;;;;;;;;;;;;;;;-144.99;89.25;52338.03;4992651;28;19930;-73
2022/05/18 01:03:05;;;;;;;;;;;;;;;-144.99;87.08;52366.56;4994341;28;19925;-73
2022/05/18 01:05:35;;;;;;;;;;;;;;;-144.99;86.13;52346.19;4994016;28;19926;-74
2022/05/18 01:08:02;;;;;;;;;;;;;;;-144.99;84.96;52366.56;4992700;28;19926;-73
2022/05/18 01:10:29;;;;;;;;;;;;;;;-144.99;84.08;52382.88;4991093;28;20412;-74
2022/05/18 01:12:55;;;;;;;;;;;;;;;-144.99;83.41;52350.25;4990514;28;20011;-74
2022/05/18 01:15:23;;;;;;;;;;;;;;;-144.99;82.63;52370.63;4990456;28;19926;-73
2022/05/18 01:17:53;;;;;;;;;;;;;;;-144.99;82.53;52366.56;4990668;28;20002;-73
2022/05/18 01:20:22;;;;;;;;;;;;;;;-144.99;82.19;52321.72;4989863;28;19976;-73
2022/05/18 01:22:51;;;;;;;;;;;;;;;-144.99;82.31;52338.03;4990826;28;19932;-73
2022/05/18 01:25:21;;;;;;;;;;;;;;;-144.99;80.91;52342.09;4991104;28;19988;-73
2022/05/18 01:27:50;;;;;;;;;;;;;;;-144.99;81.56;52338.03;4990043;28;19925;-73
2022/05/18 01:30:16;;;;;;;;;;;;;;;-144.99;80.19;52346.19;4990271;28;19926;-74
2022/05/18 01:32:44;;;;;;;;;;;;;;;-144.99;79.85;52352.28;4989145;28;19926;-74
2022/05/18 01:35:12;;;;;;;;;;;;;;;-144.99;79.10;52333.94;4989956;28;20334;-74
2022/05/18 01:37:38;;;;;;;;;;;;;;;-144.99;79.06;52342.09;4989942;28;20409;-73
2022/05/18 01:40:08;;;;;;;;;;;;;;;-144.99;78.43;52362.50;4990193;28;19949;-74
2022/05/18 01:42:38;;;;;;;;;;;;;;;-144.99;77.56;52374.72;4982859;28;20532;-73
2022/05/18 01:45:06;;;;;;;;;;;;;;;-144.99;78.11;52370.63;4989592;28;19970;-73
2022/05/18 01:47:33;;;;;;;;;;;;;;;-144.99;78.08;52364.53;4989923;28;19930;-73
2022/05/18 01:50:01;;;;;;;;;;;;;;;-144.99;78.25;52374.72;4988859;28;20173;-74
2022/05/18 01:52:27;;;;;;;;;;;;;;;-144.99;77.44;52395.09;4973300;28;19929;-74
2022/05/18 01:54:53;;;;;;;;;;;;;;;-144.99;77.14;52370.63;4988246;28;19941;-73
2022/05/18 01:57:20;;;;;;;;;;;;;;;-144.99;77.42;52393.06;4981098;28;19930;-74
2022/05/18 01:59:46;;;;;;;;;;;;;;;-144.99;77.59;52403.25;4980197;28;20028;-75
2022/05/18 02:02:14;;;;;;;;;;;;;;;-144.99;78.03;52356.38;4989241;28;20709;-74
2022/05/18 02:04:40;;;;;;;;;;;;;;;-144.99;77.75;52382.88;4978761;28;19984;-74
2022/05/18 02:07:07;;;;;;;;;;;;;;;-144.99;78.22;52415.47;4989405;28;20377;-74
2022/05/18 02:09:33;;;;;;;;;;;;;;;-144.99;78.64;52342.09;4988264;28;19926;-75
2022/05/18 02:12:00;;;;;;;;;;;;;;;-144.99;78.61;52321.72;4983874;28;19937;-75
2022/05/18 02:14:26;;;;;;;;;;;;;;;-144.99;77.32;52386.94;4989663;28;19926;-74
2022/05/18 02:16:53;;;;;;;;;;;;;;;-144.99;76.39;52370.63;4989568;28;19965;-74
2022/05/18 02:19:20;;;;;;;;;;;;;;;-144.99;76.70;52348.22;4990019;28;19926;-74
2022/05/18 02:21:47;;;;;;;;;;;;;;;-144.99;77.03;52399.19;4989073;28;19941;-75
2022/05/18 02:24:13;;;;;;;;;;;;;;;-144.99;76.75;52423.63;4990315;28;19926;-74
2022/05/18 02:26:40;;;;;;;;;;;;;;;-144.99;76.49;52372.69;4988014;28;20073;-74
2022/05/18 02:29:06;;;;;;;;;;;;;;;-144.99;76.20;52378.78;4986022;28;19925;-74
2022/05/18 02:31:33;;;;;;;;;;;;;;;-144.99;75.32;52386.94;4988886;28;19925;-75
2022/05/18 02:33:59;;;;;;;;;;;;;;;-144.99;75.42;52427.72;4989395;28;19930;-74
2022/05/18 02:36:27;;;;;;;;;;;;;;;-144.99;75.40;52391.03;4989381;28;19933;-74
2022/05/18 02:38:53;;;;;;;;;;;;;;;-144.99;76.07;52378.78;4989371;28;19926;-74
2022/05/18 02:41:20;;;;;;;;;;;;;;;-144.99;75.07;52360.44;4989077;28;19938;-74
2022/05/18 02:43:46;;;;;;;;;;;;;;;-144.99;74.75;52435.88;4988930;28;19925;-75
2022/05/18 02:46:14;;;;;;;;;;;;;;;-144.99;74.39;52362.50;4989658;28;19926;-74
2022/05/18 02:48:41;;;;;;;;;;;;;;;-144.99;74.16;52399.19;4989665;28;20012;-75
2022/05/18 02:51:08;;;;;;;;;;;;;;;-144.99;74.02;52403.25;4989699;28;20325;-75
2022/05/18 02:53:35;;;;;;;;;;;;;;;-144.99;73.85;52374.72;4988432;28;19932;-75
2022/05/18 02:56:07;;;;;;;;;;;;;;;-144.99;73.49;52374.72;4989707;28;19945;-74
2022/05/18 02:58:35;;;;;;;;;;;;;;;-144.99;73.55;52407.31;4989453;28;20286;-74
2022/05/18 03:01:01;;;;;;;;;;;;;;;-144.99;73.14;52370.63;4989208;28;19937;-74
2022/05/18 03:03:28;;;;;;;;;;;;;;;-144.99;72.91;52370.63;4988721;28;19926;-75
2022/05/18 03:05:54;;;;;;;;;;;;;;;-144.99;72.93;52386.94;4988778;28;19933;-74
2022/05/18 03:08:20;;;;;;;;;;;;;;;-144.99;72.92;52403.25;4988495;28;19926;-75
2022/05/18 03:10:48;;;;;;;;;;;;;;;-144.99;73.29;52395.09;4984688;28;19933;-74
2022/05/18 03:13:14;;;;;;;;;;;;;;;-144.99;73.08;52376.75;4988440;28;19941;-75
2022/05/18 03:15:41;;;;;;;;;;;;;;;-144.99;73.06;52382.88;4989401;28;19933;-74
2022/05/18 03:18:07;;;;;;;;;;;;;;;-144.99;73.05;52423.63;4989346;28;19926;-76
2022/05/18 03:23:36;;;;;;;;;;;;;;;-144.99;72.40;52370.63;4988243;28;19933;-76
2022/05/18 03:26:05;;;;;;;;;;;;;;;-144.99;72.12;52378.78;4989138;28;20276;-74
2022/05/18 03:28:32;;;;;;;;;;;;;;;-144.99;71.97;52374.72;4982578;28;19930;-73
2022/05/18 03:30:58;;;;;;;;;;;;;;;-144.99;71.88;52370.63;4988527;28;20400;-73
2022/05/18 03:33:25;;;;;;;;;;;;;;;-144.99;71.49;52395.09;4988083;28;19937;-73
2022/05/18 03:35:51;;;;;;;;;;;;;;;-144.99;71.23;52374.72;4989060;28;19926;-75
2022/05/18 03:38:18;;;;;;;;;;;;;;;-144.99;71.05;52370.63;4988336;28;19951;-74
2022/05/18 03:40:44;;;;;;;;;;;;;;;-144.99;71.03;52384.91;4988759;28;19926;-73
2022/05/18 03:43:12;;;;;;;;;;;;;;;-144.99;70.98;52393.06;4988419;28;19933;-74
2022/05/18 03:45:38;;;;;;;;;;;;;;;-144.99;70.75;52378.78;4988420;28;19934;-75
2022/05/18 03:48:06;;;;;;;;;;;;;;;-144.99;70.46;52378.78;4988260;28;19925;-73
2022/05/18 03:50:32;;;;;;;;;;;;;;;-144.99;70.66;52378.78;4990336;28;19949;-75
2022/05/18 03:53:00;;;;;;;;;;;;;;;-144.99;70.96;52378.78;4991064;28;19926;-75
2022/05/18 03:55:27;;;;;;;;;;;;;;;-144.99;70.76;52386.94;4992909;28;19936;-74
2022/05/18 03:57:53;;;;;;;;;;;;;;;-144.99;70.75;52386.94;4997931;28;20014;-73
2022/05/18 04:00:21;;;;;;;;;;;;;;;-144.99;70.58;52378.78;4993033;28;19936;-75
2022/05/18 04:02:48;;;;;;;;;;;;;;;-144.99;70.78;52382.88;4991873;28;19926;-75
2022/05/18 04:05:15;;;;;;;;;;;;;;;-144.99;70.65;52382.88;4992218;28;19969;-74
2022/05/18 04:07:41;;;;;;;;;;;;;;;-144.99;70.85;52366.56;4992115;28;19925;-75
2022/05/18 04:10:08;;;;;;;;;;;;;;;-144.99;70.81;52403.25;4992388;28;19957;-75
2022/05/18 04:12:34;;;;;;;;;;;;;;;-144.99;70.39;52362.50;4991999;28;20229;-76
2022/05/18 04:15:01;;;;;;;;;;;;;;;-144.99;70.50;52399.19;4992704;28;20289;-76
2022/05/18 04:17:28;;;;;;;;;;;;;;;-144.99;70.53;52399.19;4992626;28;19956;-76
2022/05/18 04:19:55;;;;;;;;;;;;;;;-144.99;70.32;52374.72;4992567;28;20025;-74
2022/05/18 04:22:23;;;;;;;;;;;;;;;-144.99;70.31;52423.63;4990913;28;19933;-75
2022/05/18 04:24:50;;;;;;;;;;;;;;;-144.99;70.30;52362.50;4992491;28;19945;-75
2022/05/18 04:27:16;;;;;;;;;;;;;;;-144.99;70.37;52393.06;4992379;28;19926;-74
2022/05/18 04:29:42;;;;;;;;;;;;;;;-144.99;69.94;52382.88;4992181;28;19926;-74
2022/05/18 04:32:09;;;;;;;;;;;;;;;-144.99;69.66;52395.09;4991767;28;20381;-75
2022/05/18 04:34:38;;;;;;;;;;;;;;;-144.99;69.75;52342.09;4992150;28;19933;-74
2022/05/18 04:37:04;;;;;;;;;;;;;;;-144.99;70.17;52393.06;4991620;28;19926;-74
2022/05/18 04:39:31;;;;;;;;;;;;;;;-144.99;70.11;52362.50;4992030;28;19989;-74
2022/05/18 04:41:57;;;;;;;;;;;;;;;-144.99;70.16;52399.19;4991726;28;19926;-74
2022/05/18 04:44:23;;;;;;;;;;;;;;;-144.99;70.18;52358.41;4984198;23;19933;-76
2022/05/18 04:46:50;;;;;;;;;;;;;;;-144.99;69.61;52391.03;4954702;28;20299;-72
2022/05/18 04:49:16;;;;;;;;;;;;;;;-144.99;70.63;52358.41;4969789;28;19932;-75
2022/05/18 04:51:43;;;;;;;;;;;;;;;-144.99;70.75;52386.94;4964889;28;19930;-74
2022/05/18 04:54:10;;;;;;;;;;;;;;;-144.99;70.03;52378.78;4961894;28;19958;-74
2022/05/18 04:56:36;;;;;;;;;;;;;;;-144.99;69.89;52346.19;4961774;28;19934;-73
2022/05/18 04:59:02;;;;;;;;;;;;;;;-144.99;70.35;52325.81;4949467;28;19935;-75
2022/05/18 05:01:30;;;;;;;;;;;;;;;-144.99;70.33;52333.94;4946155;28;19927;-74
2022/05/18 05:03:57;;;;;;;;;;;;;;;-144.99;70.21;52350.25;4608692;28;9999996;-75
2022/05/18 05:06:23;;;;;;;;;;;;;;;-144.99;69.93;52358.41;4949668;28;20321;-74
2022/05/18 05:08:50;;;;;;;;;;;;;;;-144.99;69.44;52370.63;4941841;28;20309;-75
2022/05/18 05:11:17;;;;;;;;;;;;;;;-144.99;69.09;52370.63;4935034;28;19938;-74
2022/05/18 05:13:43;;;;;;;;;;;;;;;-144.99;68.76;52366.56;4943274;28;19935;-74
2022/05/18 05:16:11;;;;;;;;;;;;;;;-144.99;68.78;52391.03;4950817;28;19927;-72
2022/05/18 05:18:38;;;;;;;;;;;;;;;-144.99;68.68;52354.34;4945735;28;20049;-72
2022/05/18 05:21:05;;;;;;;;;;;;;;;-144.99;68.75;52352.28;4949628;28;20155;-72
2022/05/18 05:23:32;;;;;;;;;;;;;;;-144.99;68.77;52348.22;4944146;28;20380;-73
2022/05/18 05:25:59;;;;;;;;;;;;;;;-144.99;68.86;52338.03;4947451;28;19930;-71
2022/05/18 05:28:26;;;;;;;;;;;;;;;-144.99;68.39;52323.75;4952310;28;20433;-72
2022/05/18 05:30:53;;;;;;;;;;;;;;;-144.99;68.60;52327.84;4945213;28;19950;-73
2022/05/18 05:33:19;;;;;;;;;;;;;;;-144.99;69.45;52325.81;4948674;28;19931;-73
2022/05/18 05:35:46;;;;;;;;;;;;;;;-144.99;69.39;52338.03;4948646;28;20414;-72
2022/05/18 05:38:13;;;;;;;;;;;;;;;-144.99;70.09;52327.84;4953604;28;19931;-73
2022/05/18 05:40:40;;;;;;;;;;;;;;;-144.99;69.67;52338.03;4943727;28;19934;-72
2022/05/18 05:43:08;;;;;;;;;;;;;;;-144.99;69.56;52311.53;4938385;28;19927;-72
2022/05/18 05:45:34;;;;;;;;;;;;;;;-144.99;70.07;52327.84;4950572;28;20207;-73
2022/05/18 05:48:01;;;;;;;;;;;;;;;-144.99;69.80;52333.94;4938735;28;19937;-71
2022/05/18 05:50:27;;;;;;;;;;;;;;;-144.99;69.88;52350.25;4958017;28;19930;-72
2022/05/18 05:52:54;;;;;;;;;;;;;;;-144.99;69.84;52338.03;4943395;28;19930;-73
2022/05/18 05:55:20;;;;;;;;;;;;;;;-144.99;70.27;52321.72;4957803;28;19934;-73
2022/05/18 05:57:47;;;;;;;;;;;;;;;-144.99;71.13;52346.19;4942027;28;19926;-73
2022/05/18 06:00:15;;;;;;;;;;;;;;;-144.99;71.22;52297.25;4952241;28;19973;-75
2022/05/18 06:02:42;;;;;;;;;;;;;;;-144.99;71.19;52317.66;4938015;28;19930;-72
2022/05/18 06:05:08;;;;;;;;;;;;;;;-144.99;70.96;52327.84;4946824;28;19930;-73
2022/05/18 06:07:35;;;;;;;;;;;;;;;-144.99;71.00;52313.56;4951260;28;19930;-72
2022/05/18 06:10:01;;;;;;;;;;;;;;;-144.99;70.29;52309.50;4937656;28;20079;-72
2022/05/18 06:12:27;;;;;;;;;;;;;;;-144.99;70.23;52317.66;4955390;28;19933;-73
2022/05/18 06:14:54;;;;;;;;;;;;;;;-144.99;70.23;52338.03;4946967;28;19930;-72
2022/05/18 06:17:22;;;;;;;;;;;;;;;-144.99;70.50;52325.81;4947662;28;19937;-72
2022/05/18 06:19:48;;;;;;;;;;;;;;;-144.99;70.33;52285.03;4943417;28;19949;-72
2022/05/18 06:22:14;;;;;;;;;;;;;;;-144.99;70.17;52321.72;4935536;28;20382;-73
2022/05/18 06:24:41;;;;;;;;;;;;;;;-144.99;69.74;52297.25;4948034;28;19938;-74
2022/05/18 06:27:07;;;;;;;;;;;;;;;-144.99;69.49;52309.50;4938734;28;19942;-74
2022/05/18 06:29:34;;;;;;;;;;;;;;;-144.99;69.69;52293.19;4957782;28;19937;-73
2022/05/18 06:32:00;;;;;;;;;;;;;;;-144.99;70.40;52285.03;4950158;28;20189;-73
2022/05/18 06:34:28;;;;;;;;;;;;;;;-144.99;70.42;52333.94;4941380;28;20361;-74
2022/05/18 06:36:54;;;;;;;;;;;;;;;-144.99;70.81;52331.91;4950702;28;19926;-73
2022/05/18 06:39:21;;;;;;;;;;;;;;;-144.99;71.19;52293.19;4938864;28;19941;-74
2022/05/18 06:41:47;;;;;;;;;;;;;;;-144.99;71.97;52313.56;4948883;28;19938;-72
2022/05/18 06:44:14;;;;;;;;;;;;;;;-144.99;72.51;52301.34;4944097;28;20314;-73
2022/05/18 06:46:41;;;;;;;;;;;;;;;-144.99;72.33;52285.03;4946496;28;20034;-73
2022/05/18 06:49:09;;;;;;;;;;;;;;;-144.99;72.83;52305.41;4946041;28;19927;-73
2022/05/18 06:51:37;;;;;;;;;;;;;;;-144.99;73.27;52384.91;4942968;28;20338;-73
2022/05/18 06:54:05;;;;;;;;;;;;;;;-144.99;73.52;52313.56;4954829;28;19926;-73
2022/05/18 06:56:33;;;;;;;;;;;;;;;-144.99;73.71;52329.88;4954777;28;20009;-72
2022/05/18 06:59:00;;;;;;;;;;;;;;;-144.99;74.02;52358.41;4942365;28;20018;-72
2022/05/18 07:01:27;;;;;;;;;;;;;;;-144.99;74.27;52362.50;4942014;28;20310;-72
2022/05/18 07:03:54;;;;;;;;;;;;;;;-144.99;74.48;52309.50;4948099;28;19986;-74
2022/05/18 07:06:22;;;;;;;;;;;;;;;-144.99;74.98;52327.84;4942683;28;19930;-72
2022/05/18 07:08:51;;;;;;;;;;;;;;;-144.99;74.89;52350.25;4945833;28;19931;-73
2022/05/18 07:11:17;;;;;;;;;;;;;;;-144.99;75.11;52329.88;4937691;28;20505;-72
2022/05/18 07:13:44;;;;;;;;;;;;;;;-144.99;74.67;52297.25;4939557;28;20398;-72
2022/05/18 07:16:10;;;;;;;;;;;;;;;-144.99;74.53;52321.72;4953879;28;19930;-73
2022/05/18 07:18:37;;;;;;;;;;;;;;;-144.99;73.93;52301.34;4936370;28;20433;-73
2022/05/18 07:21:04;;;;;;;;;;;;;;;-144.99;73.36;52325.81;4948178;28;20008;-73
2022/05/18 07:23:31;;;;;;;;;;;;;;;-144.99;73.22;52313.56;4953916;28;19926;-71
2022/05/18 07:25:59;;;;;;;;;;;;;;;-144.99;72.75;52297.25;4942549;28;19931;-72
2022/05/18 07:28:26;;;;;;;;;;;;;;;-144.99;72.95;52278.91;4947270;28;19941;-72
2022/05/18 07:30:53;;;;;;;;;;;;;;;-144.99;72.78;52309.50;4938897;28;19931;-72
2022/05/18 07:33:21;;;;;;;;;;;;;;;-144.99;72.81;52305.41;4957417;28;19934;-73
2022/05/18 07:35:48;;;;;;;;;;;;;;;-144.99;72.74;52309.50;4949314;28;19926;-73
2022/05/18 07:38:15;;;;;;;;;;;;;;;-144.99;72.29;52260.56;4951572;28;19931;-73
2022/05/18 07:40:42;;;;;;;;;;;;;;;-144.99;72.31;52268.72;4943750;28;19930;-74
2022/05/18 07:43:10;;;;;;;;;;;;;;;-144.99;71.85;52317.66;4938618;28;20461;-75
2022/05/18 07:45:36;;;;;;;;;;;;;;;-144.99;72.52;52285.03;4951507;28;20423;-73
2022/05/18 07:48:02;;;;;;;;;;;;;;;-144.99;71.96;52289.13;4940378;28;19930;-73
2022/05/18 07:50:29;;;;;;;;;;;;;;;-144.99;71.41;52268.72;4957574;28;19926;-73
2022/05/18 07:52:58;;;;;;;;;;;;;;;-144.99;70.23;52260.56;4946152;28;19927;-74
2022/05/18 07:55:25;;;;;;;;;;;;;;;-144.99;69.58;52244.28;4956355;28;19926;-75
2022/05/18 07:57:51;;;;;;;;;;;;;;;-144.99;69.08;52244.28;4944550;28;20419;-73
2022/05/18 08:00:20;;;;;;;;;;;;;;;-144.99;69.55;52246.31;4956659;28;19935;-75
2022/05/18 08:02:46;;;;;;;;;;;;;;;-144.99;69.64;52246.31;4954489;28;19934;-74
2022/05/18 08:05:13;;;;;;;;;;;;;;;-144.99;68.77;52260.56;4950462;28;19998;-74
2022/05/18 08:07:45;;;;;;;;;;;;;;;-144.99;68.39;52240.19;4953921;28;19934;-75
2022/05/18 08:15:42;;;;;;;;;;;;;;;-144.99;67.62;52230.00;4942478;28;20503;-74
2022/05/18 08:18:09;;;;;;;;;;;;;;;-144.99;65.70;52252.44;4945354;28;20191;-74
2022/05/18 08:20:38;;;;;;;;;;;;;;;-144.99;65.75;52227.97;4948517;28;19997;-75
2022/05/18 08:23:05;;;;;;;;;;;;;;;-144.99;64.66;52219.81;4937556;28;20426;-75
2022/05/18 08:25:31;;;;;;;;;;;;;;;-144.99;64.76;52240.19;4957438;28;19930;-75
2022/05/18 08:27:57;;;;;;;;;;;;;;;-144.99;65.00;52256.50;4944413;28;19936;-73
2022/05/18 08:30:24;;;;;;;;;;;;;;;-144.99;64.07;52227.97;4954765;28;19936;-74
2022/05/18 08:32:52;;;;;;;;;;;;;;;-144.99;64.82;52223.88;4944385;28;19936;-75
2022/05/18 08:35:18;;;;;;;;;;;;;;;-144.99;63.84;52217.78;4946145;28;19954;-75
2022/05/18 08:37:46;;;;;;;;;;;;;;;-144.99;63.58;52232.03;4958170;28;19984;-74
2022/05/18 08:40:15;;;;;;;;;;;;;;;-144.99;64.01;52272.81;4951576;28;19942;-73
2022/05/18 08:42:42;;;;;;;;;;;;;;;-144.99;63.76;52211.66;4952893;28;20200;-74
2022/05/18 08:45:08;;;;;;;;;;;;;;;-144.99;64.60;52205.53;4946701;28;19974;-72
2022/05/18 08:47:40;;;;;;;;;;;;;;;-144.99;63.78;52221.84;4947517;28;19930;-74
2022/05/18 08:50:11;;;;;;;;;;;;;;;-144.99;63.53;52213.69;4950510;28;19941;-74
2022/05/18 08:52:43;;;;;;;;;;;;;;;-144.99;62.42;52215.75;4945053;28;19977;-73
2022/05/18 08:55:21;;;;;;;;;;;;;;;-144.99;62.36;52203.50;4958296;28;19938;-74
2022/05/18 08:57:49;;;;;;;;;;;;;;;-144.99;62.49;52209.63;4950664;28;20434;-74
2022/05/18 09:00:18;;;;;;;;;;;;;;;-144.99;62.24;52168.84;4955980;28;20005;-74
2022/05/18 09:02:45;;;;;;;;;;;;;;;-144.99;61.27;52146.44;4948785;28;19938;-75
2022/05/18 09:05:15;;;;;;;;;;;;;;;-144.99;61.04;52179.06;4950082;28;19931;-75
2022/05/18 09:07:43;;;;;;;;;;;;;;;-144.99;60.69;52183.13;4953398;28;19933;-76
2022/05/18 09:10:16;;;;;;;;;;;;;;;-144.99;60.18;52203.50;4938198;28;20512;-76
2022/05/18 09:12:43;;;;;;;;;;;;;;;-144.99;60.25;52195.34;4946972;28;19930;-75
2022/05/18 09:15:12;;;;;;;;;;;;;;;-144.99;60.95;52203.50;4938467;28;20437;-75
2022/05/18 09:17:45;;;;;;;;;;;;;;;-144.99;61.56;52221.84;4956714;28;20505;-75
2022/05/18 09:20:16;;;;;;;;;;;;;;;-144.99;61.07;52179.06;4952431;28;19934;-75
2022/05/18 09:23:02;;;;;;;;;;;;;;;-144.99;61.18;52211.66;4954856;28;20137;-75
2022/05/18 09:25:35;;;;;;;;;;;;;;;-144.99;61.16;52207.59;4950513;28;20250;-76
2022/05/18 09:28:09;;;;;;;;;;;;;;;-144.99;61.02;52152.56;4949494;28;19930;-76
2022/05/18 09:30:41;;;;;;;;;;;;;;;-144.99;60.84;52191.28;4948645;28;19931;-75
2022/05/18 09:33:28;;;;;;;;;;;;;;;-144.99;59.82;52162.75;4947943;28;19945;-75
2022/05/18 09:36:12;;;;;;;;;;;;;;;-144.99;59.01;52166.81;4947581;28;19927;-76
2022/05/18 09:38:42;;;;;;;;;;;;;;;-144.99;59.13;52166.81;4946608;28;19942;-75
2022/05/18 09:41:11;;;;;;;;;;;;;;;-144.99;58.58;52172.94;4940821;28;19927;-74
2022/05/18 09:43:41;;;;;;;;;;;;;;;-144.99;58.48;52134.22;4934735;28;19931;-74
2022/05/18 09:46:09;;;;;;;;;;;;;;;-144.99;58.60;52134.22;4953421;28;19934;-75
2022/05/18 09:48:37;;;;;;;;;;;;;;;-144.99;58.38;52140.31;4935881;28;20438;-76
2022/05/18 09:51:05;;;;;;;;;;;;;;;-144.99;57.56;52170.91;4945630;28;20288;-77
2022/05/18 09:53:33;;;;;;;;;;;;;;;-144.99;57.56;52105.69;4953262;28;19935;-74
2022/05/18 09:55:59;;;;;;;;;;;;;;;-144.99;57.53;52138.28;4959084;28;19926;-74
2022/05/18 09:58:27;;;;;;;;;;;;;;;-144.99;56.88;52146.44;4941369;28;19926;-74
2022/05/18 10:07:27;;;;;;;;;;;;;;;-144.99;56.52;52130.13;4946037;28;19934;-75
2022/05/18 10:09:41;;;;;;;;;;;;;;;-144.99;55.40;52126.06;4952479;28;19994;-75
2022/05/18 10:12:11;;;;;;;;;;;;;;;-144.99;55.84;52121.97;4945815;28;20247;-76
2022/05/18 10:14:39;;;;;;;;;;;;;;;-144.99;55.17;52136.25;4955401;28;20401;-75
2022/05/18 10:17:07;;;;;;;;;;;;;;;-144.99;55.20;52081.22;4959987;28;20012;-74
2022/05/18 10:19:36;;;;;;;;;;;;;;;-144.99;54.97;52121.97;4939337;28;20457;-75
2022/05/18 10:22:04;;;;;;;;;;;;;;;-144.99;54.93;52105.69;4936901;28;20418;-76
2022/05/18 10:24:36;;;;;;;;;;;;;;;-144.99;53.68;52126.06;4950074;28;20439;-76
2022/05/18 10:27:18;;;;;;;;;;;;;;;-144.99;53.63;52085.31;4939034;28;19937;-75
2022/05/18 10:29:49;;;;;;;;;;;;;;;-144.99;53.56;52113.84;4951630;28;19938;-76
2022/05/18 10:32:21;;;;;;;;;;;;;;;-144.99;53.18;52109.75;4953155;28;20329;-76
2022/05/18 10:34:51;;;;;;;;;;;;;;;-144.99;52.91;52093.44;4949381;28;19937;-76
2022/05/18 10:37:25;;;;;;;;;;;;;;;-144.99;52.77;52085.31;4958335;28;19950;-77
2022/05/18 10:39:51;;;;;;;;;;;;;;;-144.99;52.75;52048.63;4947654;28;20010;-75
2022/05/18 10:42:23;;;;;;;;;;;;;;;-144.99;52.69;52048.63;4953215;28;19934;-75
2022/05/18 10:44:50;;;;;;;;;;;;;;;-144.99;51.07;52064.91;4942017;28;19930;-76
2022/05/18 10:47:24;;;;;;;;;;;;;;;-144.99;51.65;52020.09;4945883;28;19930;-76
2022/05/18 10:49:51;;;;;;;;;;;;;;;-144.99;51.08;52064.91;4955740;28;19989;-75
2022/05/18 10:52:20;;;;;;;;;;;;;;;-144.99;51.03;52060.84;4939290;28;20447;-77
2022/05/18 10:54:55;;;;;;;;;;;;;;;-144.99;51.01;52034.34;4944289;28;20028;-77
2022/05/18 10:57:31;;;;;;;;;;;;;;;-144.99;51.12;52044.53;4948271;28;19934;-77
2022/05/18 11:00:01;;;;;;;;;;;;;;;-144.99;50.71;52018.03;4949825;28;19931;-76
2022/05/18 11:02:31;;;;;;;;;;;;;;;-144.99;50.55;52032.31;4943922;28;19937;-76
2022/05/18 11:05:00;;;;;;;;;;;;;;;-144.99;50.54;52056.78;4949277;28;19938;-74
2022/05/18 11:07:27;;;;;;;;;;;;;;;-144.99;50.33;52060.84;4958174;28;19934;-75
2022/05/18 11:09:54;;;;;;;;;;;;;;;-144.99;50.28;52040.47;4939504;28;20346;-76
2022/05/18 11:12:29;;;;;;;;;;;;;;;-144.99;49.41;52032.31;4951030;28;19927;-75
2022/05/18 11:14:59;;;;;;;;;;;;;;;-144.99;48.89;52040.47;4959147;28;20121;-76
2022/05/18 11:17:37;;;;;;;;;;;;;;;-144.99;48.77;52060.84;4953511;28;19930;-75
2022/05/18 11:20:11;;;;;;;;;;;;;;;-144.99;48.77;51999.69;4955317;28;19930;-75
2022/05/18 11:22:39;;;;;;;;;;;;;;;-144.99;48.64;52066.97;4954705;28;19934;-77
2022/05/18 11:25:10;;;;;;;;;;;;;;;-144.99;48.48;52040.47;4961146;28;19931;-75
2022/05/18 11:27:41;;;;;;;;;;;;;;;-144.99;48.61;52052.69;4957947;28;19926;-76
2022/05/18 11:30:09;;;;;;;;;;;;;;;-144.99;49.04;52052.69;4957744;28;19934;-77
2022/05/18 11:32:43;;;;;;;;;;;;;;;-144.99;49.87;52081.22;4965246;28;19930;-76
2022/05/18 11:35:27;;;;;;;;;;;;;;;-144.99;48.89;52028.22;4951535;28;20333;-77
2022/05/18 11:37:59;;;;;;;;;;;;;;;-144.99;48.49;52007.84;4967612;28;19998;-76
2022/05/18 11:40:30;;;;;;;;;;;;;;;-144.99;47.75;52020.09;4955897;28;19926;-76
2022/05/18 11:43:25;;;;;;;;;;;;;;;-144.99;47.44;52028.22;4951140;28;19938;-77
2022/05/18 11:45:56;;;;;;;;;;;;;;;-144.99;47.99;52060.84;4954247;28;19926;-76
2022/05/18 11:48:28;;;;;;;;;;;;;;;-144.99;47.51;52054.72;4955620;28;19930;-76
2022/05/18 11:51:00;;;;;;;;;;;;;;;-144.99;47.32;52024.16;4964734;28;19962;-78
2022/05/18 11:53:40;;;;;;;;;;;;;;;-144.99;46.97;52048.63;4951826;28;19933;-78
2022/05/18 11:56:16;;;;;;;;;;;;;;;-144.99;47.53;52042.50;4961028;28;19926;-77
2022/05/18 11:58:54;;;;;;;;;;;;;;;-144.99;47.48;51999.69;4947092;28;20562;-76
2022/05/18 12:01:28;;;;;;;;;;;;;;;-144.99;46.99;52048.63;4944469;28;19942;-78
2022/05/18 12:04:07;;;;;;;;;;;;;;;-144.99;45.95;51971.16;4958336;28;19926;-77
2022/05/18 12:06:53;;;;;;;;;;;;;;;-144.99;45.56;52024.16;4946841;28;19945;-77
2022/05/18 12:09:29;;;;;;;;;;;;;;;-144.99;45.93;52046.56;4947888;28;20236;-77
2022/05/18 12:12:01;;;;;;;;;;;;;;;-144.99;45.13;52003.78;4944861;28;20333;-76
2022/05/18 12:14:33;;;;;;;;;;;;;;;-144.99;45.12;52026.19;4946598;28;19930;-77
2022/05/18 12:17:02;;;;;;;;;;;;;;;-144.99;44.68;52009.91;4948118;28;20321;-77
2022/05/18 12:19:32;;;;;;;;;;;;;;;-144.99;44.71;52036.38;4946068;28;19934;-78
2022/05/18 12:22:00;;;;;;;;;;;;;;;-144.99;44.76;52018.03;4952964;28;19942;-77
2022/05/18 12:24:28;;;;;;;;;;;;;;;-144.99;44.03;51979.31;4952040;28;19927;-77
2022/05/18 12:26:56;;;;;;;;;;;;;;;-144.99;43.86;52069.00;4945847;28;20680;-76
2022/05/18 12:29:23;;;;;;;;;;;;;;;-144.99;44.75;52069.00;4956292;28;19926;-77
2022/05/18 12:31:53;;;;;;;;;;;;;;;-144.99;45.08;52036.38;4937439;28;19926;-77
2022/05/18 12:34:22;;;;;;;;;;;;;;;-144.99;44.79;52042.50;4947745;28;19931;-77
2022/05/18 12:36:53;;;;;;;;;;;;;;;-144.99;45.15;52093.44;4960134;28;19941;-77
2022/05/18 12:39:21;;;;;;;;;;;;;;;-144.99;44.99;52042.50;4946572;28;19942;-78
2022/05/18 12:41:52;;;;;;;;;;;;;;;-144.99;45.16;52101.59;4955594;28;19937;-77
2022/05/18 12:44:23;;;;;;;;;;;;;;;-144.99;45.82;52058.81;4943501;28;20325;-74
2022/05/18 12:46:54;;;;;;;;;;;;;;;-144.99;45.25;52032.31;4949421;28;20388;-75